createdAt,value
2023-04-21T00:01:37.723Z,9.53
2023-04-21T00:04:53.571Z,9.40
2023-04-21T00:08:29.679Z,8.63
2023-04-21T00:11:53.054Z,9.47
2023-04-21T00:15:04.318Z,10.00
2023-04-21T00:18:12.153Z,11.10
2023-04-21T00:21:09.888Z,8.50
2023-04-21T00:24:33.176Z,9.70
2023-04-21T00:27:51.133Z,9.83
2023-04-21T00:30:57.594Z,10.30
2023-04-21T00:46:47.910Z,11.10
2023-04-21T00:50:18.794Z,9.77
2023-04-21T00:53:35.000Z,10.40
2023-04-21T00:56:50.922Z,11.10
2023-04-21T01:03:21.374Z,10.00
2023-04-21T01:06:10.752Z,12.30
2023-04-21T01:08:59.104Z,10.53
2023-04-21T01:12:02.399Z,11.00
2023-04-21T01:14:52.147Z,11.40
2023-04-21T01:17:42.849Z,10.77
2023-04-21T01:20:31.860Z,11.60
2023-04-21T01:23:21.667Z,12.00
2023-04-21T01:26:10.020Z,11.83
2023-04-21T01:28:58.490Z,12.30
2023-04-21T01:31:48.289Z,12.00
2023-04-21T01:34:36.629Z,11.00
2023-04-21T01:37:26.719Z,12.97
2023-04-21T01:40:16.392Z,13.03
2023-04-21T01:43:04.889Z,11.97
2023-04-21T01:45:53.285Z,11.13
2023-04-21T01:48:41.642Z,12.87
2023-04-21T01:51:32.257Z,11.60
2023-04-21T01:54:20.500Z,12.90
2023-04-21T01:57:10.224Z,11.83
2023-04-21T01:59:59.068Z,13.00
2023-04-21T02:02:47.270Z,11.37
2023-04-21T02:05:35.719Z,14.13
2023-04-21T02:08:23.858Z,13.00
2023-04-21T02:11:12.108Z,12.57
2023-04-21T02:14:01.770Z,12.30
2023-04-21T02:16:50.071Z,13.53
2023-04-21T02:19:38.854Z,11.73
2023-04-21T02:22:27.102Z,13.67
2023-04-21T02:25:15.444Z,12.67
2023-04-21T02:28:03.632Z,12.80
2023-04-21T02:30:53.645Z,13.87
2023-04-21T02:33:41.858Z,12.50
2023-04-21T02:36:29.990Z,12.60
2023-04-21T02:39:18.409Z,12.47
2023-04-21T02:42:06.865Z,12.37
2023-04-21T02:44:55.120Z,13.10
2023-04-21T02:47:44.707Z,13.40
2023-04-21T02:50:32.829Z,12.90
2023-04-21T02:53:20.922Z,12.40
2023-04-21T02:56:09.600Z,12.27
2023-04-21T02:58:57.664Z,13.63
2023-04-21T03:01:46.478Z,12.80
2023-04-21T03:04:37.506Z,13.77
2023-04-21T03:07:25.770Z,13.53
2023-04-21T03:10:14.173Z,12.97
2023-04-21T03:13:02.409Z,12.90
2023-04-21T03:15:51.149Z,13.87
2023-04-21T03:18:39.434Z,13.43
2023-04-21T03:21:29.076Z,13.60
2023-04-21T03:24:17.356Z,13.27
2023-04-21T03:27:07.958Z,14.37
2023-04-21T03:29:57.487Z,14.40
2023-04-21T03:32:45.777Z,13.00
2023-04-21T03:35:34.526Z,13.67
2023-04-21T03:38:24.027Z,14.07
2023-04-21T03:41:12.286Z,14.87
2023-04-21T03:44:00.389Z,13.80
2023-04-21T03:46:48.833Z,14.03
2023-04-21T03:49:37.236Z,14.10
2023-04-21T03:52:25.702Z,14.83
2023-04-21T03:55:15.672Z,14.33
2023-04-21T03:58:03.992Z,14.93
2023-04-21T04:00:52.330Z,14.37
2023-04-21T04:03:40.832Z,15.63
2023-04-21T04:06:30.784Z,15.20
2023-04-21T04:09:19.490Z,15.13
2023-04-21T04:12:11.554Z,14.63
2023-04-21T04:19:33.787Z,13.30
2023-04-21T04:22:22.042Z,14.90
2023-04-21T04:25:10.613Z,14.87
2023-04-21T04:27:59.961Z,14.33
2023-04-21T04:30:49.096Z,15.37
2023-04-21T04:33:37.623Z,15.60
2023-04-21T04:36:26.159Z,14.10
2023-04-21T04:39:14.635Z,15.47
2023-04-21T04:42:03.748Z,14.20
2023-04-21T04:44:57.379Z,13.50
2023-04-21T04:47:46.005Z,15.67
2023-04-21T04:50:34.226Z,14.30
2023-04-21T04:53:22.356Z,15.20
2023-04-21T04:56:10.374Z,14.27
2023-04-21T04:58:58.287Z,14.87
2023-04-21T05:01:47.886Z,14.53
2023-04-21T05:04:36.311Z,14.43
2023-04-21T05:07:24.988Z,16.03
2023-04-21T05:10:13.093Z,16.00
2023-04-21T05:13:01.264Z,15.70
2023-04-21T05:15:49.243Z,15.40
2023-04-21T05:18:39.182Z,14.53
2023-04-21T05:21:28.424Z,14.13
2023-04-21T05:24:16.606Z,15.23
2023-04-21T05:27:04.927Z,14.83
2023-04-21T05:29:54.729Z,13.57
2023-04-21T05:32:45.185Z,14.23
2023-04-21T05:35:38.006Z,14.10
2023-04-21T05:38:27.462Z,13.67
2023-04-21T05:41:17.189Z,14.30
2023-04-21T05:44:05.423Z,12.90
2023-04-21T05:46:53.422Z,14.03
2023-04-21T05:49:41.796Z,14.80
2023-04-21T05:52:31.347Z,15.77
2023-04-21T05:55:19.642Z,13.63
2023-04-21T05:58:08.037Z,13.13
2023-04-21T06:00:56.268Z,13.80
2023-04-21T06:03:44.553Z,14.60
2023-04-21T06:06:32.944Z,15.97
2023-04-21T06:09:22.640Z,13.80
2023-04-21T06:12:10.777Z,15.80
2023-04-21T06:14:59.463Z,14.53
2023-04-21T06:17:47.558Z,13.50
2023-04-21T06:20:36.002Z,13.57
2023-04-21T06:23:24.200Z,13.40
2023-04-21T06:26:13.929Z,14.20
2023-04-21T06:29:02.216Z,13.37
2023-04-21T06:31:50.372Z,13.27
2023-04-21T06:34:38.711Z,12.40
2023-04-21T06:37:26.857Z,13.73
2023-04-21T06:40:16.244Z,11.90
2023-04-21T06:43:06.055Z,13.67
2023-04-21T06:45:54.205Z,12.43
2023-04-21T06:48:42.242Z,31.80
2023-04-21T06:51:31.209Z,12.60
2023-04-21T06:54:19.274Z,13.80
2023-04-21T06:57:08.647Z,14.97
2023-04-21T06:59:58.191Z,13.13
2023-04-21T07:02:46.508Z,13.53
2023-04-21T07:05:35.046Z,12.83
2023-04-21T07:08:23.454Z,13.23
2023-04-21T07:11:11.497Z,13.17
2023-04-21T07:14:02.268Z,12.03
2023-04-21T07:16:51.876Z,12.73
2023-04-21T07:19:40.768Z,12.00
2023-04-21T07:22:28.830Z,12.27
2023-04-21T07:25:17.112Z,15.70
2023-04-21T07:28:05.840Z,19.33
2023-04-21T07:30:54.077Z,12.73
2023-04-21T07:33:43.514Z,13.63
2023-04-21T07:36:31.786Z,13.50
2023-04-21T07:39:20.435Z,12.33
2023-04-21T07:42:09.964Z,12.87
2023-04-21T07:45:00.369Z,12.03
2023-04-21T07:47:48.566Z,12.03
2023-04-21T07:50:38.430Z,12.70
2023-04-21T07:53:26.670Z,11.30
2023-04-21T07:56:14.806Z,12.00
2023-04-21T07:59:02.889Z,12.87
2023-04-21T08:01:52.001Z,11.57
2023-04-21T08:04:40.346Z,12.13
2023-04-21T08:07:29.969Z,11.20
2023-04-21T08:10:18.286Z,12.00
2023-04-21T08:13:06.868Z,12.07
2023-04-21T08:15:55.380Z,11.37
2023-04-21T08:18:43.600Z,11.53
2023-04-21T08:21:32.086Z,10.10
2023-04-21T08:24:22.078Z,11.17
2023-04-21T08:27:10.567Z,11.63
2023-04-21T08:29:58.914Z,12.77
2023-04-21T08:32:47.157Z,10.43
2023-04-21T08:35:36.209Z,11.87
2023-04-21T08:38:24.469Z,11.30
2023-04-21T08:41:14.687Z,10.83
2023-04-21T08:44:02.922Z,11.60
2023-04-21T08:46:51.524Z,11.10
2023-04-21T08:49:40.478Z,10.70
2023-04-21T08:52:28.609Z,10.90
2023-04-21T08:55:17.610Z,10.73
2023-04-21T08:58:09.242Z,9.80
2023-04-21T09:00:58.170Z,9.90
2023-04-21T09:03:46.486Z,9.77
2023-04-21T09:06:43.672Z,8.80
2023-04-21T09:09:31.867Z,11.07
2023-04-21T09:12:20.187Z,9.37
2023-04-21T09:15:11.983Z,10.40
2023-04-21T09:18:00.361Z,9.93
2023-04-21T09:20:50.434Z,9.93
2023-04-21T09:23:46.373Z,11.00
2023-04-21T09:26:36.998Z,9.00
2023-04-21T09:29:26.197Z,9.10
2023-04-21T09:32:18.632Z,9.63
2023-04-21T09:35:10.845Z,10.10
2023-04-21T09:38:02.505Z,9.93
2023-04-21T09:40:58.280Z,10.30
2023-04-21T09:43:46.547Z,9.67
2023-04-21T09:46:37.000Z,11.20
2023-04-21T09:49:31.042Z,10.50
2023-04-21T09:52:21.210Z,10.17
2023-04-21T09:55:13.684Z,10.10
2023-04-21T09:58:05.517Z,10.53
2023-04-21T10:00:57.028Z,9.23
2023-04-21T10:03:47.034Z,10.00
2023-04-21T10:06:37.251Z,9.20
2023-04-21T10:09:29.039Z,9.63
2023-04-21T10:12:19.181Z,8.73
2023-04-21T10:15:28.952Z,9.47
2023-04-21T10:18:18.805Z,8.33
2023-04-21T10:21:09.039Z,7.73
2023-04-21T10:23:59.328Z,8.17
2023-04-21T10:26:47.689Z,8.50
2023-04-21T10:32:44.449Z,7.70
2023-04-21T10:36:00.454Z,9.00
2023-04-21T10:38:57.241Z,8.90
2023-04-21T10:41:47.304Z,9.00
2023-04-21T10:44:35.333Z,8.57
2023-04-21T10:47:27.689Z,8.40
2023-04-21T10:50:24.125Z,7.70
2023-04-21T10:53:14.796Z,8.17
2023-04-21T10:56:07.091Z,9.20
2023-04-21T10:58:57.001Z,6.87
2023-04-21T11:01:45.774Z,8.40
2023-04-21T11:04:35.671Z,8.80
2023-04-21T11:07:25.178Z,7.97
2023-04-21T11:10:13.300Z,8.20
2023-04-21T11:13:01.901Z,8.40
2023-04-21T11:16:06.442Z,8.47
2023-04-21T11:18:54.626Z,9.40
2023-04-21T11:21:42.838Z,7.47
2023-04-21T11:24:31.093Z,7.80
2023-04-21T11:27:19.430Z,8.07
2023-04-21T11:30:09.261Z,8.10
2023-04-21T11:32:58.876Z,8.50
2023-04-21T11:35:48.568Z,7.30
2023-04-21T11:38:41.656Z,7.30
2023-04-21T11:41:29.843Z,8.17
2023-04-21T11:44:33.825Z,8.20
2023-04-21T11:47:24.789Z,9.00
2023-04-21T11:50:33.126Z,7.83
2023-04-21T11:53:21.202Z,7.50
2023-04-21T11:56:10.714Z,7.73
2023-04-21T11:58:59.016Z,7.70
2023-04-21T12:01:48.790Z,7.20
2023-04-21T12:04:37.055Z,8.47
2023-04-21T12:07:26.890Z,6.83
2023-04-21T12:10:18.029Z,7.73
2023-04-21T12:13:06.206Z,8.43
2023-04-21T12:15:54.505Z,8.03
2023-04-21T12:18:45.531Z,13.60
2023-04-21T12:21:33.598Z,7.20
2023-04-21T12:24:23.170Z,7.70
2023-04-21T12:27:11.966Z,7.90
2023-04-21T12:30:00.471Z,7.73
2023-04-21T12:32:48.823Z,7.10
2023-04-21T12:35:37.119Z,8.37
2023-04-21T12:38:25.511Z,8.20
2023-04-21T12:41:16.393Z,7.53
2023-04-21T12:44:04.439Z,7.33
2023-04-21T12:46:52.630Z,7.30
2023-04-21T12:49:40.869Z,7.20
2023-04-21T12:52:29.105Z,6.97
2023-04-21T12:55:17.797Z,7.23
2023-04-21T12:58:07.554Z,6.93
2023-04-21T13:00:56.530Z,6.70
2023-04-21T13:03:45.068Z,7.10
2023-04-21T13:06:34.121Z,7.23
2023-04-21T13:09:22.368Z,7.30
2023-04-21T13:12:10.643Z,7.67
2023-04-21T13:15:00.569Z,6.57
2023-04-21T13:17:48.873Z,8.93
2023-04-21T13:20:36.952Z,7.77
2023-04-21T13:23:24.956Z,6.30
2023-04-21T13:26:13.109Z,8.60
2023-04-21T13:29:01.274Z,7.43
2023-04-21T13:31:50.918Z,6.90
2023-04-21T13:34:39.158Z,6.70
2023-04-21T13:37:27.294Z,7.63
2023-04-21T13:40:15.715Z,6.77
2023-04-21T13:43:04.075Z,6.47
2023-04-21T13:45:52.516Z,7.50
2023-04-21T13:48:42.265Z,6.67
2023-04-21T13:51:32.362Z,7.40
2023-04-21T13:54:20.452Z,7.60
2023-04-21T13:57:08.998Z,7.00
2023-04-21T13:59:57.119Z,8.17
2023-04-21T14:02:45.603Z,6.73
2023-04-21T14:05:35.287Z,7.37
2023-04-21T14:08:23.605Z,6.27
2023-04-21T14:11:14.102Z,6.83
2023-04-21T14:14:09.492Z,7.50
2023-04-21T14:16:58.457Z,6.17
2023-04-21T14:19:47.379Z,6.37
2023-04-21T14:22:38.018Z,7.47
2023-04-21T14:25:26.910Z,6.30
2023-04-21T14:28:18.100Z,6.87
2023-04-21T14:31:06.437Z,6.67
2023-04-21T14:33:54.586Z,6.60
2023-04-21T14:36:42.980Z,8.20
2023-04-21T14:39:34.000Z,6.77
2023-04-21T14:42:22.405Z,7.13
2023-04-21T14:45:11.440Z,6.60
2023-04-21T14:47:59.897Z,6.80
2023-04-21T14:50:48.501Z,7.23
2023-04-21T14:53:36.538Z,6.67
2023-04-21T14:56:26.124Z,6.47
2023-04-21T14:59:14.180Z,6.80
2023-04-21T15:02:02.628Z,6.97
2023-04-21T15:04:51.196Z,6.93
2023-04-21T15:07:40.595Z,6.00
2023-04-21T15:10:30.040Z,6.27
2023-04-21T15:13:19.651Z,6.20
2023-04-21T15:16:08.309Z,6.40
2023-04-21T15:18:56.535Z,7.07
2023-04-21T15:21:44.840Z,6.37
2023-04-21T15:24:33.105Z,6.23
2023-04-21T15:27:21.253Z,7.00
2023-04-21T15:30:12.607Z,6.90
2023-04-21T15:33:01.578Z,7.73
2023-04-21T15:35:49.809Z,8.30
2023-04-21T15:38:37.953Z,8.17
2023-04-21T15:41:29.471Z,6.13
2023-04-21T15:44:18.044Z,7.63
2023-04-21T15:47:07.956Z,7.33
2023-04-21T15:49:57.497Z,6.77
2023-04-21T15:52:45.983Z,6.70
2023-04-21T15:55:36.053Z,6.33
2023-04-21T15:58:24.283Z,7.67
2023-04-21T16:01:13.221Z,7.23
2023-04-21T16:04:03.781Z,7.40
2023-04-21T16:06:52.349Z,7.93
2023-04-21T16:09:40.557Z,7.33
2023-04-21T16:12:29.053Z,7.20
2023-04-21T16:15:23.729Z,7.43
2023-04-21T16:18:12.700Z,7.03
2023-04-21T16:21:03.124Z,6.30
2023-04-21T16:23:51.409Z,9.03
2023-04-21T16:26:39.931Z,7.10
2023-04-21T16:29:28.042Z,6.90
2023-04-21T16:32:16.271Z,6.80
2023-04-21T16:35:08.281Z,6.60
2023-04-21T16:37:57.893Z,6.70
2023-04-21T16:40:46.050Z,7.43
2023-04-21T16:43:34.200Z,7.50
2023-04-21T16:46:25.511Z,7.60
2023-04-21T16:49:13.883Z,6.73
2023-04-21T16:52:02.128Z,5.73
2023-04-21T16:54:51.672Z,6.90
2023-04-21T16:57:39.923Z,6.80
2023-04-21T17:00:30.397Z,5.83
2023-04-21T17:03:19.376Z,6.77
2023-04-21T17:06:10.989Z,7.07
2023-04-21T17:09:00.816Z,7.57
2023-04-21T17:11:50.244Z,6.77
2023-04-21T17:14:38.669Z,6.60
2023-04-21T17:17:27.391Z,5.80
2023-04-21T17:20:16.397Z,5.90
2023-04-21T17:23:06.136Z,8.20
2023-04-21T17:25:54.241Z,6.20
2023-04-21T17:28:43.799Z,7.23
2023-04-21T17:31:33.428Z,7.07
2023-04-21T17:34:21.832Z,6.53
2023-04-21T17:37:10.821Z,6.40
2023-04-21T17:40:01.761Z,6.93
2023-04-21T17:42:50.807Z,6.67
2023-04-21T17:45:43.052Z,6.00
2023-04-21T17:48:31.195Z,7.20
2023-04-21T17:51:19.506Z,7.10
2023-04-21T17:54:08.516Z,7.70
2023-04-21T17:56:56.704Z,6.63
2023-04-21T17:59:47.785Z,7.73
2023-04-21T18:02:37.514Z,6.60
2023-04-21T18:05:25.884Z,6.87
2023-04-21T18:08:14.830Z,6.47
2023-04-21T18:11:02.952Z,7.23
2023-04-21T18:13:51.105Z,6.43
2023-04-21T18:16:39.497Z,6.83
2023-04-21T18:19:31.542Z,6.33
2023-04-21T18:22:19.873Z,6.50
2023-04-21T18:25:11.844Z,6.37
2023-04-21T18:28:00.054Z,5.80
2023-04-21T18:30:51.603Z,6.47
2023-04-21T18:33:39.905Z,6.60
2023-04-21T18:36:32.399Z,7.00
2023-04-21T18:39:21.617Z,6.30
2023-04-21T18:42:09.664Z,6.30
2023-04-21T18:45:04.021Z,6.13
2023-04-21T18:47:52.817Z,6.13
2023-04-21T18:50:41.861Z,7.80
2023-04-21T18:53:31.563Z,5.87
2023-04-21T18:56:22.147Z,5.50
2023-04-21T18:59:10.849Z,5.80
2023-04-21T19:02:00.352Z,5.43
2023-04-21T19:04:49.230Z,5.97
2023-04-21T19:07:38.259Z,6.17
2023-04-21T19:10:31.185Z,9.60
2023-04-21T19:13:20.949Z,5.57
2023-04-21T19:16:11.343Z,7.97
2023-04-21T19:19:01.789Z,6.77
2023-04-21T19:21:52.746Z,6.53
2023-04-21T19:24:41.379Z,6.00
2023-04-21T19:27:34.968Z,7.03
2023-04-21T19:30:25.408Z,7.20
2023-04-21T19:33:14.015Z,6.27
2023-04-21T19:36:04.194Z,6.20
2023-04-21T19:38:56.910Z,6.80
2023-04-21T19:41:45.064Z,6.60
2023-04-21T19:44:35.927Z,6.37
2023-04-21T19:47:24.435Z,6.90
2023-04-21T19:50:13.377Z,6.90
2023-04-21T19:53:01.544Z,6.43
2023-04-21T19:55:52.517Z,5.97
2023-04-21T19:58:41.487Z,7.10
2023-04-21T20:01:31.039Z,7.20
2023-04-21T20:04:19.543Z,6.00
2023-04-21T20:07:08.540Z,8.03
2023-04-21T20:09:56.729Z,6.30
2023-04-21T20:12:46.238Z,6.90
2023-04-21T20:15:37.340Z,6.03
2023-04-21T20:18:27.376Z,7.10
2023-04-21T20:21:15.452Z,7.80
2023-04-21T20:24:03.758Z,7.17
2023-04-21T20:26:52.062Z,7.43
2023-04-21T20:29:40.671Z,6.70
2023-04-21T20:32:28.970Z,6.97
2023-04-21T20:35:18.920Z,7.20
2023-04-21T20:38:07.993Z,5.97
2023-04-21T20:40:56.774Z,7.47
2023-04-21T20:43:46.809Z,7.20
2023-04-21T20:46:36.421Z,6.40
2023-04-21T20:49:24.825Z,7.03
2023-04-21T20:52:14.455Z,7.30
2023-04-21T20:55:02.606Z,7.13
2023-04-21T20:57:50.615Z,8.13
2023-04-21T21:00:38.855Z,8.53
2023-04-21T21:03:27.342Z,7.57
2023-04-21T21:06:15.714Z,6.97
2023-04-21T21:09:06.433Z,7.53
2023-04-21T21:11:54.808Z,7.63
2023-04-21T21:14:43.110Z,6.50
2023-04-21T21:17:31.386Z,7.20
2023-04-21T21:20:20.831Z,7.63
2023-04-21T21:23:09.224Z,7.57
2023-04-21T21:25:59.027Z,7.33
2023-04-21T21:28:49.444Z,7.47
2023-04-21T21:31:38.068Z,7.57
2023-04-21T21:34:26.616Z,6.80
2023-04-21T21:37:15.083Z,7.50
2023-04-21T21:40:03.513Z,7.17
2023-04-21T21:42:52.976Z,7.17
2023-04-21T21:45:41.204Z,8.43
2023-04-21T21:48:29.312Z,7.73
2023-04-21T21:51:18.171Z,6.90
2023-04-21T21:54:07.170Z,7.47
2023-04-21T21:56:56.544Z,7.60
2023-04-21T21:59:46.120Z,7.50
2023-04-21T22:02:34.464Z,7.20
2023-04-21T22:05:25.316Z,7.37
2023-04-21T22:08:16.026Z,7.37
2023-04-21T22:11:06.125Z,7.37
2023-04-21T22:13:54.374Z,7.20
2023-04-21T22:16:46.230Z,8.43
2023-04-21T22:19:34.984Z,7.73
2023-04-21T22:22:23.544Z,8.03
2023-04-21T22:25:12.954Z,8.00
2023-04-21T22:28:03.323Z,7.67
2023-04-21T22:30:51.642Z,6.70
2023-04-21T22:33:44.071Z,8.27
2023-04-21T22:36:32.734Z,7.80
2023-04-21T22:39:29.008Z,7.50
2023-04-21T22:42:17.651Z,8.90
2023-04-21T22:45:06.356Z,8.10
2023-04-21T22:47:55.938Z,7.63
2023-04-21T22:50:45.727Z,8.10
2023-04-21T22:53:34.091Z,8.13
2023-04-21T22:56:24.807Z,8.30
2023-04-21T22:59:12.936Z,7.90
2023-04-21T23:02:01.890Z,7.93
2023-04-21T23:04:50.951Z,7.70
2023-04-21T23:07:40.566Z,8.10
2023-04-21T23:10:29.317Z,7.63
2023-04-21T23:13:17.657Z,8.03
2023-04-21T23:16:06.077Z,7.87
2023-04-21T23:18:54.951Z,9.00
2023-04-21T23:21:43.020Z,8.57
2023-04-21T23:24:33.308Z,8.27
2023-04-21T23:27:21.865Z,8.90
2023-04-21T23:30:11.674Z,7.83
2023-04-21T23:32:59.915Z,8.57
2023-04-21T23:35:48.383Z,8.20
2023-04-21T23:38:39.362Z,8.73
2023-04-21T23:41:29.275Z,8.50
2023-04-21T23:44:17.779Z,7.70
2023-04-21T23:47:06.416Z,8.50
2023-04-21T23:49:54.895Z,8.60
2023-04-21T23:52:44.301Z,9.30
2023-04-21T23:55:32.532Z,9.33
2023-04-21T23:58:22.167Z,9.17
